createdAt,value
2023-03-30T00:01:12.502Z,12.10
2023-03-30T00:03:41.184Z,12.10
2023-03-30T00:06:10.650Z,12.10
2023-03-30T00:08:39.430Z,12.10
2023-03-30T00:11:09.156Z,12.20
2023-03-30T00:13:38.146Z,12.20
2023-03-30T00:16:09.564Z,12.10
2023-03-30T00:18:39.421Z,12.10
2023-03-30T00:21:09.576Z,12.10
2023-03-30T00:23:38.001Z,12.10
2023-03-30T00:26:07.419Z,12.10
2023-03-30T00:28:35.960Z,12.10
2023-03-30T00:31:04.543Z,12.10
2023-03-30T00:33:44.764Z,12.10
2023-03-30T00:36:15.901Z,12.10
2023-03-30T00:38:45.671Z,12.00
2023-03-30T00:41:14.341Z,12.10
2023-03-30T00:43:58.907Z,12.20
2023-03-30T00:46:27.797Z,12.10
2023-03-30T00:48:59.979Z,12.10
2023-03-30T00:51:29.253Z,12.10
2023-03-30T00:54:00.401Z,12.20
2023-03-30T00:56:30.168Z,12.10
2023-03-30T00:58:58.674Z,12.10
2023-03-30T01:01:28.970Z,12.00
2023-03-30T01:04:02.245Z,12.00
2023-03-30T01:06:31.751Z,12.00
2023-03-30T01:09:00.240Z,12.00
2023-03-30T01:11:29.108Z,12.10
2023-03-30T01:13:58.532Z,12.10
2023-03-30T01:16:30.306Z,12.10
2023-03-30T01:19:06.063Z,12.00
2023-03-30T01:21:49.567Z,12.20
2023-03-30T01:24:42.989Z,12.10
2023-03-30T01:27:15.683Z,12.10
2023-03-30T01:29:48.446Z,12.10
2023-03-30T01:32:30.942Z,12.10
2023-03-30T01:35:08.693Z,12.10
2023-03-30T01:38:00.877Z,12.00
2023-03-30T01:40:32.466Z,12.00
2023-03-30T01:43:03.454Z,12.00
2023-03-30T01:45:37.323Z,12.00
2023-03-30T01:48:08.615Z,11.90
2023-03-30T01:50:39.627Z,11.90
2023-03-30T01:53:13.038Z,11.90
2023-03-30T01:55:45.470Z,12.00
2023-03-30T01:58:16.981Z,11.90
2023-03-30T02:00:48.810Z,11.90
2023-03-30T02:03:19.161Z,11.90
2023-03-30T02:05:50.460Z,12.00
2023-03-30T02:08:20.389Z,12.00
2023-03-30T02:10:51.133Z,11.90
2023-03-30T02:13:20.596Z,11.90
2023-03-30T02:15:51.613Z,12.00
2023-03-30T02:18:21.628Z,12.00
2023-03-30T02:20:50.495Z,12.00
2023-03-30T02:23:20.173Z,12.00
2023-03-30T02:25:48.574Z,12.00
2023-03-30T02:28:18.544Z,12.00
2023-03-30T02:30:48.163Z,12.00
2023-03-30T02:33:22.014Z,12.00
2023-03-30T02:36:06.480Z,11.90
2023-03-30T02:38:45.979Z,12.00
2023-03-30T02:41:19.079Z,11.90
2023-03-30T02:43:55.441Z,11.90
2023-03-30T02:46:32.680Z,11.90
2023-03-30T02:49:07.676Z,11.80
2023-03-30T02:51:40.301Z,11.80
2023-03-30T02:54:12.337Z,11.80
2023-03-30T02:57:16.666Z,11.80
2023-03-30T03:03:12.442Z,11.80
2023-03-30T03:05:42.980Z,11.80
2023-03-30T03:08:14.447Z,11.70
2023-03-30T03:10:42.942Z,11.70
2023-03-30T03:13:11.533Z,11.60
2023-03-30T03:15:40.229Z,11.60
2023-03-30T03:18:10.602Z,11.60
2023-03-30T03:20:39.155Z,11.60
2023-03-30T03:23:07.806Z,11.60
2023-03-30T03:25:36.513Z,11.60
2023-03-30T03:28:05.106Z,11.60
2023-03-30T03:30:33.602Z,11.70
2023-03-30T03:33:02.214Z,11.70
2023-03-30T03:35:32.170Z,11.70
2023-03-30T03:38:00.676Z,11.60
2023-03-30T03:40:29.216Z,11.70
2023-03-30T03:42:57.620Z,11.60
2023-03-30T03:45:26.229Z,11.60
2023-03-30T03:47:54.936Z,11.60
2023-03-30T03:50:23.426Z,11.70
2023-03-30T03:52:53.280Z,11.70
2023-03-30T03:55:21.797Z,11.70
2023-03-30T03:57:50.285Z,11.70
2023-03-30T04:00:19.204Z,11.70
2023-03-30T04:02:47.727Z,11.60
2023-03-30T04:05:16.554Z,11.60
2023-03-30T04:07:46.426Z,11.60
2023-03-30T04:10:16.718Z,11.60
2023-03-30T04:12:45.163Z,11.60
2023-03-30T04:15:13.662Z,11.60
2023-03-30T04:17:42.170Z,11.50
2023-03-30T04:20:12.271Z,11.50
2023-03-30T04:22:42.255Z,11.50
2023-03-30T04:25:11.611Z,11.50
2023-03-30T04:27:42.908Z,11.50
2023-03-30T04:30:12.107Z,11.50
2023-03-30T04:32:41.407Z,11.50
2023-03-30T04:35:11.177Z,11.50
2023-03-30T04:37:42.256Z,11.40
2023-03-30T04:40:11.354Z,11.40
2023-03-30T04:42:41.298Z,11.40
2023-03-30T04:45:11.322Z,11.30
2023-03-30T04:47:39.865Z,11.30
2023-03-30T04:50:09.222Z,11.30
2023-03-30T04:52:37.778Z,11.30
2023-03-30T04:55:06.634Z,11.30
2023-03-30T04:57:35.004Z,11.30
2023-03-30T05:00:07.771Z,11.40
2023-03-30T05:02:36.634Z,11.40
2023-03-30T05:05:05.389Z,11.40
2023-03-30T05:07:33.825Z,11.40
2023-03-30T05:10:02.284Z,11.30
2023-03-30T05:12:30.796Z,11.40
2023-03-30T05:14:59.329Z,11.40
2023-03-30T05:17:29.308Z,11.40
2023-03-30T05:19:57.741Z,11.50
2023-03-30T05:22:26.222Z,11.60
2023-03-30T05:24:54.757Z,11.60
2023-03-30T05:27:23.255Z,11.70
2023-03-30T05:29:51.741Z,11.70
2023-03-30T05:32:20.201Z,11.60
2023-03-30T05:34:50.157Z,11.70
2023-03-30T05:37:18.938Z,11.80
2023-03-30T05:39:48.328Z,11.80
2023-03-30T05:42:16.815Z,11.80
2023-03-30T05:44:45.492Z,11.80
2023-03-30T05:47:13.985Z,11.80
2023-03-30T05:49:42.573Z,11.80
2023-03-30T05:52:13.303Z,11.80
2023-03-30T05:54:41.887Z,11.80
2023-03-30T05:57:10.434Z,11.80
2023-03-30T05:59:39.510Z,11.80
2023-03-30T06:02:10.810Z,11.90
2023-03-30T06:04:39.457Z,12.00
2023-03-30T06:07:08.515Z,12.00
2023-03-30T06:09:38.643Z,12.10
2023-03-30T06:12:07.322Z,12.20
2023-03-30T06:14:35.812Z,12.20
2023-03-30T06:17:04.555Z,12.20
2023-03-30T06:19:33.093Z,12.30
2023-03-30T06:22:01.547Z,12.40
2023-03-30T06:24:30.040Z,12.50
2023-03-30T06:27:01.724Z,12.60
2023-03-30T06:29:30.203Z,12.70
2023-03-30T06:31:59.136Z,12.70
2023-03-30T06:34:27.649Z,12.80
2023-03-30T06:36:56.241Z,12.90
2023-03-30T06:39:25.393Z,13.00
2023-03-30T06:41:54.117Z,13.10
2023-03-30T06:44:24.505Z,13.10
2023-03-30T06:46:53.281Z,13.20
2023-03-30T06:49:21.869Z,13.20
2023-03-30T06:51:50.477Z,13.30
2023-03-30T06:54:20.486Z,13.40
2023-03-30T06:56:49.885Z,13.40
2023-03-30T06:59:18.391Z,13.60
2023-03-30T07:01:48.391Z,13.70
2023-03-30T07:04:17.212Z,13.80
2023-03-30T07:06:45.648Z,13.80
2023-03-30T07:09:14.120Z,13.70
2023-03-30T07:11:42.597Z,13.80
2023-03-30T07:14:12.716Z,13.80
2023-03-30T07:16:41.194Z,13.90
2023-03-30T07:19:11.090Z,14.00
2023-03-30T07:21:39.583Z,14.10
2023-03-30T07:24:08.275Z,14.20
2023-03-30T07:26:37.133Z,14.20
2023-03-30T07:29:06.873Z,14.20
2023-03-30T07:31:35.647Z,14.30
2023-03-30T07:34:04.381Z,14.30
2023-03-30T07:36:34.592Z,14.30
2023-03-30T07:39:03.900Z,14.30
2023-03-30T07:41:32.381Z,14.40
2023-03-30T07:44:01.009Z,14.40
2023-03-30T07:46:29.639Z,14.30
2023-03-30T07:48:58.158Z,14.30
2023-03-30T07:51:28.077Z,14.30
2023-03-30T07:54:00.378Z,14.40
2023-03-30T07:56:28.825Z,14.50
2023-03-30T07:58:58.996Z,14.40
2023-03-30T08:01:28.760Z,14.60
2023-03-30T08:03:57.338Z,14.70
2023-03-30T08:06:26.141Z,14.80
2023-03-30T08:08:54.633Z,15.10
2023-03-30T08:11:24.377Z,15.30
2023-03-30T08:13:55.999Z,15.60
2023-03-30T08:16:24.753Z,15.90
2023-03-30T08:18:54.962Z,16.30
2023-03-30T08:21:25.711Z,16.60
2023-03-30T08:23:56.203Z,16.60
2023-03-30T08:26:26.385Z,16.70
2023-03-30T08:28:55.372Z,17.00
2023-03-30T08:31:23.874Z,17.20
2023-03-30T08:33:52.403Z,17.20
2023-03-30T08:36:21.483Z,17.40
2023-03-30T08:38:49.961Z,17.50
2023-03-30T08:41:28.896Z,17.60
2023-03-30T08:43:59.123Z,17.80
2023-03-30T08:46:27.849Z,18.00
2023-03-30T08:48:58.013Z,18.00
2023-03-30T08:51:28.749Z,18.20
2023-03-30T08:53:58.434Z,18.10
2023-03-30T08:56:28.525Z,18.10
2023-03-30T08:59:04.725Z,18.20
2023-03-30T09:01:36.256Z,18.00
2023-03-30T09:04:13.428Z,17.80
2023-03-30T09:06:47.798Z,17.70
2023-03-30T09:09:18.481Z,17.80
2023-03-30T09:11:47.744Z,17.80
2023-03-30T09:14:23.983Z,17.60
2023-03-30T09:16:53.831Z,17.50
2023-03-30T09:19:23.876Z,17.30
2023-03-30T09:21:53.732Z,17.40
2023-03-30T09:24:25.754Z,17.40
2023-03-30T09:26:59.204Z,17.40
2023-03-30T09:29:30.166Z,17.20
2023-03-30T09:32:03.696Z,17.20
2023-03-30T09:34:36.964Z,17.30
2023-03-30T09:37:06.417Z,17.50
2023-03-30T09:39:35.856Z,17.50
2023-03-30T09:42:12.601Z,17.30
2023-03-30T09:44:45.570Z,17.20
2023-03-30T09:47:20.639Z,17.30
2023-03-30T09:49:49.005Z,17.20
2023-03-30T09:52:21.485Z,17.00
2023-03-30T09:54:49.941Z,16.90
2023-03-30T09:57:25.888Z,16.80
2023-03-30T09:59:56.544Z,16.70
2023-03-30T10:02:27.858Z,16.80
2023-03-30T10:04:57.423Z,16.70
2023-03-30T10:07:28.020Z,16.80
2023-03-30T10:09:56.951Z,16.90
2023-03-30T10:12:26.083Z,16.90
2023-03-30T10:14:56.934Z,17.00
2023-03-30T10:17:26.736Z,17.00
2023-03-30T10:20:07.233Z,16.90
2023-03-30T10:22:49.422Z,16.90
2023-03-30T10:25:20.084Z,16.90
2023-03-30T10:27:50.800Z,16.90
2023-03-30T10:30:23.617Z,17.10
2023-03-30T10:32:52.657Z,17.00
2023-03-30T10:35:22.883Z,17.00
2023-03-30T10:37:52.399Z,17.10
2023-03-30T10:40:22.862Z,17.00
2023-03-30T10:42:53.145Z,17.10
2023-03-30T10:45:24.294Z,17.30
2023-03-30T10:47:59.442Z,17.30
2023-03-30T10:50:35.844Z,17.30
2023-03-30T10:53:11.260Z,17.20
2023-03-30T10:55:43.197Z,17.10
2023-03-30T10:58:19.254Z,17.30
2023-03-30T11:00:59.204Z,17.50
2023-03-30T11:03:29.390Z,17.30
2023-03-30T11:05:59.106Z,17.30
2023-03-30T11:08:29.950Z,17.20
2023-03-30T11:11:00.003Z,17.10
2023-03-30T11:13:31.572Z,16.90
2023-03-30T11:16:03.735Z,16.90
2023-03-30T11:18:35.687Z,17.00
2023-03-30T11:21:06.294Z,17.20
2023-03-30T11:23:39.953Z,17.30
2023-03-30T11:26:09.535Z,17.30
2023-03-30T11:28:47.609Z,17.30
2023-03-30T11:31:22.763Z,17.30
2023-03-30T11:33:54.162Z,17.30
2023-03-30T11:36:25.122Z,17.20
2023-03-30T11:38:56.663Z,17.20
2023-03-30T11:41:28.952Z,17.20
2023-03-30T11:43:57.488Z,17.20
2023-03-30T11:46:28.529Z,17.20
2023-03-30T11:49:05.873Z,17.00
2023-03-30T11:51:42.928Z,16.80
2023-03-30T11:54:27.296Z,16.80
2023-03-30T11:57:01.813Z,16.50
2023-03-30T11:59:32.956Z,16.60
2023-03-30T12:02:08.365Z,16.70
2023-03-30T12:04:41.730Z,16.70
2023-03-30T12:07:17.339Z,16.40
2023-03-30T12:09:47.273Z,16.30
2023-03-30T12:12:16.613Z,16.20
2023-03-30T12:14:56.888Z,16.10
2023-03-30T12:17:30.716Z,16.00
2023-03-30T12:20:01.024Z,16.00
2023-03-30T12:22:33.074Z,16.10
2023-03-30T12:25:04.889Z,16.10
2023-03-30T12:27:35.755Z,16.10
2023-03-30T12:30:14.728Z,16.20
2023-03-30T12:35:52.520Z,16.10
2023-03-30T12:38:25.545Z,16.30
2023-03-30T12:40:55.734Z,16.10
2023-03-30T12:43:28.309Z,15.90
2023-03-30T12:46:03.468Z,15.90
2023-03-30T12:48:37.778Z,15.80
2023-03-30T12:51:12.532Z,16.00
2023-03-30T12:53:48.397Z,16.20
2023-03-30T12:56:24.649Z,16.20
2023-03-30T12:59:14.002Z,16.30
2023-03-30T13:01:52.741Z,16.20
2023-03-30T13:04:24.010Z,16.10
2023-03-30T13:06:53.503Z,15.90
2023-03-30T13:09:45.742Z,15.80
2023-03-30T13:12:31.674Z,15.90
2023-03-30T13:15:01.661Z,16.00
2023-03-30T13:17:48.722Z,16.20
2023-03-30T13:20:28.408Z,16.30
2023-03-30T13:23:03.086Z,16.20
2023-03-30T13:25:39.634Z,16.10
2023-03-30T13:28:26.710Z,16.20
2023-03-30T13:30:57.818Z,16.20
2023-03-30T13:33:26.769Z,16.10
2023-03-30T13:36:01.868Z,16.00
2023-03-30T13:38:45.417Z,15.90
2023-03-30T13:41:23.003Z,15.80
2023-03-30T13:43:57.671Z,15.70
2023-03-30T13:46:32.436Z,15.80
2023-03-30T13:49:07.768Z,15.90
2023-03-30T13:51:37.788Z,16.10
2023-03-30T13:54:08.434Z,16.10
2023-03-30T13:56:39.097Z,16.20
2023-03-30T13:59:08.619Z,16.20
2023-03-30T14:01:39.845Z,16.10
2023-03-30T14:04:11.318Z,15.90
2023-03-30T14:06:44.213Z,15.90
2023-03-30T14:09:14.231Z,15.90
2023-03-30T14:11:44.803Z,15.70
2023-03-30T14:14:17.198Z,15.70
2023-03-30T14:16:47.456Z,15.70
2023-03-30T14:19:21.530Z,15.80
2023-03-30T14:21:50.133Z,15.80
2023-03-30T14:24:19.769Z,15.80
2023-03-30T14:26:49.193Z,15.80
2023-03-30T14:29:30.323Z,15.70
2023-03-30T14:34:35.084Z,15.70
2023-03-30T14:37:04.863Z,15.70
2023-03-30T14:39:35.646Z,15.70
2023-03-30T14:42:10.266Z,15.70
2023-03-30T14:44:39.968Z,15.70
2023-03-30T14:47:10.064Z,15.50
2023-03-30T14:49:38.750Z,15.60
2023-03-30T14:52:09.849Z,15.60
2023-03-30T14:54:38.942Z,15.60
2023-03-30T14:57:08.495Z,15.60
2023-03-30T14:59:39.893Z,15.60
2023-03-30T15:02:18.895Z,15.70
2023-03-30T15:04:47.445Z,15.60
2023-03-30T15:07:16.363Z,15.60
2023-03-30T15:09:46.204Z,15.50
2023-03-30T15:12:19.090Z,15.30
2023-03-30T15:14:48.701Z,15.40
2023-03-30T15:17:20.557Z,15.30
2023-03-30T15:19:49.751Z,15.30
2023-03-30T15:22:23.428Z,15.30
2023-03-30T15:24:52.248Z,15.40
2023-03-30T15:27:20.811Z,15.40
2023-03-30T15:29:49.522Z,15.30
2023-03-30T15:32:20.954Z,15.40
2023-03-30T15:35:01.120Z,15.40
2023-03-30T15:37:30.864Z,15.40
2023-03-30T15:39:59.502Z,15.40
2023-03-30T15:42:30.368Z,15.30
2023-03-30T15:45:05.640Z,15.30
2023-03-30T15:47:35.686Z,15.20
2023-03-30T15:50:04.530Z,15.30
2023-03-30T15:52:34.368Z,15.40
2023-03-30T15:55:05.469Z,15.40
2023-03-30T15:57:34.011Z,15.40
2023-03-30T16:00:04.987Z,15.40
2023-03-30T16:02:41.860Z,15.40
2023-03-30T16:05:17.915Z,15.40
2023-03-30T16:07:46.610Z,15.30
2023-03-30T16:10:15.548Z,15.30
2023-03-30T16:12:45.053Z,15.30
2023-03-30T16:15:14.742Z,15.30
2023-03-30T16:17:44.652Z,15.30
2023-03-30T16:20:15.618Z,15.20
2023-03-30T16:22:44.445Z,15.10
2023-03-30T16:25:12.928Z,15.10
2023-03-30T16:27:41.713Z,15.10
2023-03-30T16:30:14.619Z,15.20
2023-03-30T16:32:44.554Z,15.20
2023-03-30T16:35:13.075Z,15.30
2023-03-30T16:37:42.077Z,15.20
2023-03-30T16:40:23.411Z,15.30
2023-03-30T16:42:51.936Z,15.20
2023-03-30T16:45:20.408Z,15.20
2023-03-30T16:47:50.279Z,15.20
2023-03-30T16:50:21.012Z,15.30
2023-03-30T16:52:49.620Z,15.20
2023-03-30T16:55:18.649Z,15.30
2023-03-30T16:57:47.090Z,15.30
2023-03-30T17:00:18.858Z,15.30
2023-03-30T17:02:47.404Z,15.30
2023-03-30T17:05:17.419Z,15.20
2023-03-30T17:07:45.892Z,15.30
2023-03-30T17:10:24.266Z,15.30
2023-03-30T17:12:52.937Z,15.30
2023-03-30T17:15:21.404Z,15.30
2023-03-30T17:17:50.209Z,15.30
2023-03-30T17:20:22.125Z,15.10
2023-03-30T17:22:50.899Z,15.00
2023-03-30T17:25:23.426Z,15.00
2023-03-30T17:27:52.506Z,14.90
2023-03-30T17:30:22.869Z,14.90
2023-03-30T17:32:51.433Z,14.80
2023-03-30T17:35:21.474Z,14.80
2023-03-30T17:37:50.367Z,14.80
2023-03-30T17:40:20.480Z,14.80
2023-03-30T17:42:49.233Z,14.80
2023-03-30T17:45:18.704Z,14.80
2023-03-30T17:47:47.447Z,14.80
2023-03-30T17:50:21.339Z,14.70
2023-03-30T17:52:51.576Z,14.80
2023-03-30T17:55:20.815Z,14.80
2023-03-30T17:57:49.251Z,14.70
2023-03-30T18:00:19.635Z,14.80
2023-03-30T18:02:48.197Z,14.70
2023-03-30T18:05:17.057Z,14.70
2023-03-30T18:07:45.789Z,14.70
2023-03-30T18:10:18.028Z,14.70
2023-03-30T18:12:46.834Z,14.70
2023-03-30T18:15:15.815Z,14.70
2023-03-30T18:17:44.234Z,14.80
2023-03-30T18:20:23.461Z,14.70
2023-03-30T18:22:52.291Z,14.70
2023-03-30T18:25:31.918Z,14.70
2023-03-30T18:28:01.121Z,14.70
2023-03-30T18:30:30.501Z,14.70
2023-03-30T18:32:59.519Z,14.70
2023-03-30T18:35:30.804Z,14.70
2023-03-30T18:37:59.531Z,14.70
2023-03-30T18:40:32.950Z,14.60
2023-03-30T18:43:01.694Z,14.60
2023-03-30T18:45:31.349Z,14.70
2023-03-30T18:47:59.816Z,14.70
2023-03-30T18:50:30.318Z,14.70
2023-03-30T18:52:58.844Z,14.70
2023-03-30T18:55:27.256Z,14.70
2023-03-30T18:57:58.029Z,14.60
2023-03-30T19:00:27.552Z,14.70
2023-03-30T19:02:57.366Z,14.70
2023-03-30T19:05:27.128Z,14.80
2023-03-30T19:07:56.012Z,14.80
2023-03-30T19:10:26.682Z,14.80
2023-03-30T19:12:55.336Z,14.80
2023-03-30T19:15:26.172Z,14.70
2023-03-30T19:17:54.807Z,14.70
2023-03-30T19:20:24.419Z,14.70
2023-03-30T19:22:53.208Z,14.70
2023-03-30T19:25:22.483Z,14.80
2023-03-30T19:28:01.856Z,14.80
2023-03-30T19:30:34.204Z,14.80
2023-03-30T19:33:05.177Z,14.70
2023-03-30T19:35:33.774Z,14.70
2023-03-30T19:38:02.335Z,14.70
2023-03-30T19:40:30.766Z,14.70
2023-03-30T19:42:59.297Z,14.60
2023-03-30T19:45:28.039Z,14.60
2023-03-30T19:47:57.864Z,14.60
2023-03-30T19:50:27.982Z,14.60
2023-03-30T19:52:58.072Z,14.60
2023-03-30T19:55:27.147Z,14.50
2023-03-30T19:57:55.744Z,14.50
2023-03-30T20:00:24.726Z,14.50
2023-03-30T20:02:54.023Z,14.40
2023-03-30T20:05:24.601Z,14.40
2023-03-30T20:07:53.228Z,14.40
2023-03-30T20:10:22.445Z,14.40
2023-03-30T20:12:51.278Z,14.40
2023-03-30T20:15:20.731Z,14.40
2023-03-30T20:17:49.274Z,14.30
2023-03-30T20:20:25.195Z,14.30
2023-03-30T20:22:56.509Z,14.30
2023-03-30T20:25:25.549Z,14.40
2023-03-30T20:27:54.477Z,14.30
2023-03-30T20:30:23.127Z,14.30
2023-03-30T20:33:06.289Z,14.30
2023-03-30T20:35:36.420Z,14.20
2023-03-30T20:38:06.645Z,14.20
2023-03-30T20:40:35.144Z,14.20
2023-03-30T20:43:03.679Z,14.10
2023-03-30T20:45:32.762Z,14.10
2023-03-30T20:48:21.550Z,14.10
2023-03-30T20:50:50.023Z,14.10
2023-03-30T20:53:19.916Z,14.10
2023-03-30T20:55:48.375Z,14.10
2023-03-30T20:58:16.767Z,14.00
2023-03-30T21:00:47.367Z,14.00
2023-03-30T21:03:15.971Z,14.00
2023-03-30T21:05:44.560Z,14.00
2023-03-30T21:08:13.009Z,14.00
2023-03-30T21:10:43.472Z,14.00
2023-03-30T21:13:14.321Z,14.00
2023-03-30T21:15:42.789Z,14.00
2023-03-30T21:18:11.373Z,14.00
2023-03-30T21:20:39.846Z,14.00
2023-03-30T21:23:08.309Z,13.90
2023-03-30T21:25:36.735Z,13.90
2023-03-30T21:28:06.581Z,13.90
2023-03-30T21:30:35.800Z,13.90
2023-03-30T21:33:04.402Z,13.90
2023-03-30T21:35:33.028Z,13.80
2023-03-30T21:38:03.489Z,13.90
2023-03-30T21:40:32.600Z,13.90
2023-03-30T21:43:01.122Z,13.90
2023-03-30T21:45:30.925Z,14.00
2023-03-30T21:47:59.463Z,13.90
2023-03-30T21:50:28.038Z,13.80
2023-03-30T21:52:58.394Z,13.70
2023-03-30T21:55:26.868Z,13.80
2023-03-30T21:57:55.451Z,13.80
2023-03-30T22:00:23.909Z,13.60
2023-03-30T22:02:53.830Z,13.50
2023-03-30T22:05:22.372Z,13.50
2023-03-30T22:07:50.853Z,13.50
2023-03-30T22:10:19.363Z,13.50
2023-03-30T22:12:47.838Z,13.40
2023-03-30T22:15:16.331Z,13.40
2023-03-30T22:17:46.058Z,13.40
2023-03-30T22:20:16.772Z,13.40
2023-03-30T22:22:45.418Z,13.50
2023-03-30T22:25:13.912Z,13.40
2023-03-30T22:27:44.755Z,13.40
2023-03-30T22:30:13.655Z,13.40
2023-03-30T22:32:42.437Z,13.50
2023-03-30T22:35:11.230Z,13.50
2023-03-30T22:37:41.167Z,13.50
2023-03-30T22:40:10.412Z,13.50
2023-03-30T22:42:38.930Z,13.40
2023-03-30T22:45:08.000Z,13.30
2023-03-30T22:47:36.637Z,13.30
2023-03-30T22:50:05.366Z,13.30
2023-03-30T22:52:34.162Z,13.40
2023-03-30T22:55:04.765Z,13.50
2023-03-30T22:57:33.290Z,13.50
2023-03-30T23:00:07.223Z,13.50
2023-03-30T23:02:35.690Z,13.60
2023-03-30T23:05:04.409Z,13.60
2023-03-30T23:07:33.569Z,13.60
2023-03-30T23:10:04.334Z,13.60
2023-03-30T23:12:32.860Z,13.50
2023-03-30T23:15:01.643Z,13.40
2023-03-30T23:17:30.897Z,13.40
2023-03-30T23:19:59.483Z,13.40
2023-03-30T23:22:28.287Z,13.50
2023-03-30T23:24:56.780Z,13.40
2023-03-30T23:27:26.718Z,13.50
2023-03-30T23:29:55.259Z,13.50
2023-03-30T23:32:23.769Z,13.40
2023-03-30T23:34:52.188Z,13.40
2023-03-30T23:37:22.018Z,13.40
2023-03-30T23:39:50.525Z,13.40
2023-03-30T23:42:19.233Z,13.40
2023-03-30T23:44:49.242Z,13.40
2023-03-30T23:47:17.739Z,13.50
2023-03-30T23:49:46.185Z,13.50
2023-03-30T23:52:14.903Z,13.60
2023-03-30T23:54:43.406Z,13.50
2023-03-30T23:57:11.989Z,13.60
2023-03-30T23:59:40.694Z,13.50
